METAR* REPORTS - Stations within 60 miles

(*Meteorological Terminal Aviation Routine weather report)

 

KRDG - Reading, Pennsylvania, USA
Distance from station: SE 19mi, 31km
Updated: Sat, 08-Aug-2020 6:54am EDT
Mist, Few clouds
Mist, Few clouds
 Wind from NNW
Wind: NNW 3 mph , 6 km/h
Temperature: 70°F , 21°C
Dew Point: 68°F , 20°C
Humidity: 94%
Barometer: 30.15 inHg , 1021 hPa
Summary: Mist
Clouds: Few Clouds
Visibility: 5 miles , 8 km
Cloud details: Few Clouds 3900 ft
2020/08/08 10:54 KRDG 081054Z AUTO 33003KT 5SM BR FEW039 21/20 A3015 RMK AO2 SLP211 T02060200
KLNS - Lancaster, Pennsylvania, USA
Distance from station: S 33mi, 53km
Updated: Sat, 08-Aug-2020 6:53am EDT
Mist, Clear
Mist, Clear
 Wind from calm
Wind: Calm
Temperature: 70°F , 21°C
Dew Point: 66°F , 19°C
Humidity: 88%
Barometer: 30.16 inHg , 1021.3 hPa
Summary: Mist
Clouds: Clear
Visibility: 6 miles , 10 km
2020/08/08 10:53 KLNS 081053Z 00000KT 6SM BR CLR 21/19 A3016 RMK AO2 SLP212 T02060189
 
KSEG - Selinsgrove, Pennsylvania, USA
Distance from station: WNW 39mi, 62km
Updated: Sat, 08-Aug-2020 6:53am EDT
Mist, Overcast
Mist, Overcast
 Wind from calm
Wind: Calm
Temperature: 66°F , 19°C
Dew Point: 66°F , 19°C
Humidity: 100%
Barometer: 30.18 inHg , 1022 hPa
Summary: Mist
Clouds: Overcast
Visibility: 2 miles , 3 km
Cloud details: Overcast 200 ft
2020/08/08 10:53 KSEG 081053Z AUTO 00000KT 2SM BR OVC002 19/19 A3018 RMK AO2 SLP217 T01940189
KABE - Allentown, Pennsylvania, USA
Distance from station: E 39mi, 63km
Updated: Sat, 08-Aug-2020 6:51am EDT
Mist, Few clouds
Mist, Few clouds
 Wind from NNE
Wind: NNE 3 mph , 6 km/h
Temperature: 64°F , 18°C
Dew Point: 64°F , 18°C
Humidity: 100%
Barometer: 30.16 inHg , 1021.3 hPa
Summary: Mist
Clouds: Few Clouds
Visibility: 4 miles , 6 km
Cloud details: Few Clouds 400 ft
2020/08/08 10:51 KABE 081051Z 03003KT 4SM BR FEW004 18/18 A3016 RMK AO2 SLP211 T01830178
 
KMDT - Middletown, Pennsylvania, USA
Distance from station: SW 40mi, 65km
Updated: Sat, 08-Aug-2020 6:56am EDT
Overcast
Overcast
 Wind from calm
Wind: Calm
Temperature: 72°F , 22°C
Dew Point: 66°F , 19°C
Humidity: 83%
Barometer: 30.15 inHg , 1021 hPa
Clouds: Overcast
Visibility: 10 miles , 16 km
Cloud details: Overcast 3000 ft
2020/08/08 10:56 KMDT 081056Z 00000KT 10SM OVC030 22/19 A3015 RMK AO2 SLP210 T02170189
KPTW - Pottstown, Pennsylvania, USA
Distance from station: SE 42mi, 67km
Updated: Sat, 08-Aug-2020 7:00am EDT
Mist, Overcast
Mist, Overcast
 Wind from calm
Wind: Calm
Temperature: 64°F , 18°C
Dew Point: 64°F , 18°C
Humidity: 100%
Barometer: 30.17 inHg , 1021.7 hPa
Summary: Mist
Clouds: Overcast
Visibility: 1 mile , 2 km
Cloud details: Overcast 300 ft
2020/08/08 11:00 KPTW 081100Z AUTO 00000KT 1SM BR VV003 18/18 A3017 RMK AO2 T01830183 $
 
KCXY - Harrisburg, Pennsylvania, USA
Distance from station: SW 43mi, 69km
Updated: Sat, 08-Aug-2020 6:56am EDT
Overcast
Overcast
 Wind from calm
Wind: Calm
Temperature: 72°F , 22°C
Dew Point: 66°F , 19°C
Humidity: 83%
Barometer: 30.16 inHg , 1021.3 hPa
Clouds: Overcast
Visibility: 10 miles , 16 km
Cloud details: Overcast 2900 ft
2020/08/08 10:56 KCXY 081056Z 00000KT 10SM OVC029 22/19 A3016 RMK AO2 SLP213 T02170189
KUKT - Quakertown Arp, Pennsylvania, USA
Distance from station: ESE 44mi, 70km
Updated: Sat, 08-Aug-2020 6:55am EDT
Mist, Mostly cloudy
Mist, Mostly cloudy
 Wind from calm
Wind: Calm
Temperature: 66°F , 19°C
Dew Point: 66°F , 19°C
Humidity: 100%
Barometer: 30.17 inHg , 1021.7 hPa
Summary: Mist
Clouds: Mostly Cloudy
Visibility: 3 miles , 5 km
Cloud details: Partly Cloudy 300 ft
Mostly Cloudy 800 ft
2020/08/08 10:55 KUKT 081055Z AUTO 00000KT 3SM BR SCT003 BKN008 19/19 A3017 RMK A01
 
KMQS - Coatesville, Pennsylvania, USA
Distance from station: SSE 45mi, 72km
Updated: Sat, 08-Aug-2020 6:55am EDT
Mist, Clear
Mist, Clear
 Wind from calm
Wind: Calm
Temperature: 68°F , 20°C
Dew Point: 66°F , 19°C
Humidity: 94%
Barometer: 30.18 inHg , 1022 hPa
Summary: Mist
Clouds: Clear
Visibility: 4 miles , 6 km
2020/08/08 10:55 KMQS 081055Z AUTO 00000KT 4SM BR CLR 20/19 A3018 RMK AO2
KMPO - Mt. Pocono, Pennsylvania, USA
Distance from station: NE 57mi, 92km
Updated: Sat, 08-Aug-2020 6:53am EDT
Overcast
Overcast
 Wind from calm
Wind: Calm
Temperature: 57°F , 14°C
Dew Point: 57°F , 14°C
Humidity: 100%
Barometer: 30.21 inHg , 1023 hPa
Clouds: Overcast
Visibility: 10 miles , 16 km
Cloud details: Overcast 100 ft
2020/08/08 10:53 KMPO 081053Z AUTO 00000KT 10SM OVC001 14/14 A3021 RMK AO2 SLP224 T01440139
 
KAVP - Avoca/Wilkes B., Pennsylvania, USA
Distance from station: NNE 58mi, 93km
Updated: Sat, 08-Aug-2020 6:54am EDT
Clear
Clear
 Wind from E
Wind: E 5 mph , 7 km/h
Temperature: 63°F , 17°C
Dew Point: 61°F , 16°C
Humidity: 94%
Barometer: 30.18 inHg , 1022 hPa
Clouds: Clear
Visibility: 10 miles , 16 km
2020/08/08 10:54 KAVP 081054Z 10004KT 10SM CLR 17/16 A3018 RMK AO2 SLP214 T01720161
KTHV - York, Pennsylvania, USA
Distance from station: SW 59mi, 94km
Updated: Sat, 08-Aug-2020 6:53am EDT
Overcast
Overcast
 Wind from calm
Wind: Calm
Temperature: 70°F , 21°C
Dew Point: 64°F , 18°C
Humidity: 83%
Barometer: 30.16 inHg , 1021.3 hPa
Clouds: Overcast
Visibility: 10 miles , 16 km
Cloud details: Overcast 2700 ft
2020/08/08 10:53 KTHV 081053Z AUTO 00000KT 10SM OVC027 21/18 A3016 RMK AO2 SLP214 T02060183
 
KDYL - Doylestown, Pennsylvania, USA
Distance from station: ESE 59mi, 95km
Updated: Sat, 08-Aug-2020 6:54am EDT
Mist, Mostly cloudy
Mist, Mostly cloudy
 Wind from NNE
Wind: NNE 5 mph , 7 km/h
Temperature: 68°F , 20°C
Dew Point: 66°F , 19°C
Humidity: 94%
Barometer: 30.15 inHg , 1021 hPa
Summary: Mist
Clouds: Mostly Cloudy
Visibility: 2 1/2 miles , 4 km
Cloud details: Mostly Cloudy 100 ft
2020/08/08 10:54 KDYL 081054Z AUTO 02004KT 2 1/2SM BR BKN001 20/19 A3015 RMK AO2 SLP207 T02000189
KIPT - Williamsport, Pennsylvania, USA
Distance from station: NW 60mi, 96km
Updated: Sat, 08-Aug-2020 6:54am EDT
Overcast
Overcast
 Wind from calm
Wind: Calm
Temperature: 68°F , 20°C
Dew Point: 64°F , 18°C
Humidity: 88%
Barometer: 30.16 inHg , 1021.3 hPa
Clouds: Overcast
Visibility: 10 miles , 16 km
Cloud details: Overcast 600 ft
2020/08/08 10:54 KIPT 081054Z 00000KT 10SM OVC006 20/18 A3016 RMK AO2 SLP211 T02000183